Time;durP1;ratioP1;P1;durP2;ratioP2;P2;SDS_P1;SDS_P2;PMS_P1;PMS_P2;Temp;Humidity;BMP_temperature;BMP_pressure;BME280_temperature;BME280_humidity;BME280_pressure;Samples;Min_cycle;Max_cycle;Signal;HPM_P1;HPM_P2
2021/07/23 00:03:04;;;;;;;2.63;1.35;;;16.30;99.90;;;;;;20751089;28;20049;-47
2021/07/23 00:13:05;;;;;;;2.35;0.85;;;16.30;99.90;;;;;;20744546;28;20061;-48
2021/07/23 00:23:06;;;;;;;2.42;1.27;;;16.20;99.90;;;;;;20758028;28;20125;-53
2021/07/23 00:33:07;;;;;;;3.10;1.33;;;16.10;99.90;;;;;;20742751;28;20497;-48
2021/07/23 00:43:08;;;;;;;2.45;1.00;;;16.00;99.90;;;;;;20745467;28;20053;-49
2021/07/23 00:53:10;;;;;;;2.90;1.05;;;15.90;99.90;;;;;;20735997;28;20123;-48
2021/07/23 01:03:12;;;;;;;3.33;1.63;;;15.80;99.90;;;;;;20744991;28;20267;-47
2021/07/23 01:13:13;;;;;;;4.13;0.85;;;15.80;99.90;;;;;;20741725;28;20057;-47
2021/07/23 01:23:45;;;;;;;2.40;0.90;;;15.80;99.90;;;;;;20745567;28;20091;-48
2021/07/23 01:33:46;;;;;;;4.95;1.40;;;15.60;99.90;;;;;;20724546;28;20033;-48
2021/07/23 01:43:48;;;;;;;2.33;0.80;;;15.50;99.90;;;;;;20736473;28;20398;-48
2021/07/23 01:53:49;;;;;;;2.95;1.20;;;15.50;99.90;;;;;;20737771;28;20045;-52
2021/07/23 02:03:50;;;;;;;5.78;1.40;;;15.40;99.90;;;;;;20744047;28;20065;-48
2021/07/23 02:13:52;;;;;;;3.45;1.38;;;15.40;99.90;;;;;;20745738;28;20047;-48
2021/07/23 02:23:53;;;;;;;3.33;1.02;;;15.40;99.90;;;;;;20735107;28;20050;-47
2021/07/23 02:33:54;;;;;;;3.97;1.38;;;15.50;99.90;;;;;;20738340;28;20165;-48
2021/07/23 02:43:55;;;;;;;3.22;1.30;;;15.60;99.90;;;;;;20736604;28;20402;-48
2021/07/23 02:53:56;;;;;;;4.25;1.33;;;15.80;99.90;;;;;;20744576;28;20074;-48
2021/07/23 03:03:57;;;;;;;2.63;1.10;;;15.90;99.90;;;;;;20752434;28;20049;-48
2021/07/23 03:13:59;;;;;;;3.45;0.95;;;15.90;99.90;;;;;;20770201;28;20077;-48
2021/07/23 03:24:00;;;;;;;2.50;1.10;;;16.20;99.90;;;;;;20750085;28;20042;-47
2021/07/23 03:34:01;;;;;;;5.43;1.77;;;16.10;99.90;;;;;;20754512;28;20096;-51
2021/07/23 03:44:02;;;;;;;3.33;1.15;;;16.00;99.90;;;;;;20774620;28;20045;-48
2021/07/23 03:54:04;;;;;;;7.30;1.60;;;16.20;99.90;;;;;;20749732;28;20168;-48
2021/07/23 04:04:05;;;;;;;4.43;1.33;;;16.30;99.90;;;;;;20748430;28;20088;-47
2021/07/23 04:14:06;;;;;;;3.30;1.20;;;16.40;99.90;;;;;;20746419;28;20049;-48
2021/07/23 04:24:07;;;;;;;2.33;1.10;;;16.40;99.90;;;;;;20745607;28;20053;-48
2021/07/23 04:34:09;;;;;;;5.43;1.45;;;16.30;99.90;;;;;;20744833;28;20103;-47
2021/07/23 04:44:11;;;;;;;3.03;1.27;;;16.20;99.90;;;;;;20742870;28;20375;-47
2021/07/23 04:54:12;;;;;;;4.72;1.98;;;16.20;99.90;;;;;;20743037;28;20662;-47
2021/07/23 05:04:13;;;;;;;8.13;1.83;;;16.40;99.90;;;;;;20735158;28;20054;-47
2021/07/23 05:14:16;;;;;;;5.95;2.35;;;16.50;99.90;;;;;;20735711;28;20470;-47
2021/07/23 05:24:18;;;;;;;4.07;1.50;;;16.40;99.90;;;;;;20735777;28;20049;-47
2021/07/23 05:34:19;;;;;;;4.60;1.23;;;16.40;99.90;;;;;;20737957;28;20064;-47
2021/07/23 05:44:20;;;;;;;4.30;1.77;;;16.30;99.90;;;;;;20739731;28;20049;-47
2021/07/23 05:54:22;;;;;;;3.78;1.48;;;16.40;99.90;;;;;;20743838;28;20049;-47
2021/07/23 06:04:23;;;;;;;3.30;1.80;;;16.50;99.90;;;;;;20735003;28;20425;-47
2021/07/23 06:14:24;;;;;;;3.70;1.20;;;16.30;99.90;;;;;;20733201;28;20061;-47
2021/07/23 06:24:25;;;;;;;3.03;1.33;;;16.40;99.90;;;;;;20731853;28;20104;-47
2021/07/23 06:34:27;;;;;;;4.03;1.15;;;16.50;99.90;;;;;;20747299;28;20053;-48
2021/07/23 06:44:30;;;;;;;5.90;2.63;;;16.50;99.90;;;;;;20734663;28;20079;-47
2021/07/23 06:54:31;;;;;;;4.45;1.50;;;16.60;99.90;;;;;;20746429;28;20126;-47
2021/07/23 07:04:32;;;;;;;4.53;1.90;;;16.80;99.90;;;;;;20674351;28;20056;-47
2021/07/23 07:14:33;;;;;;;3.53;1.92;;;17.00;99.90;;;;;;20749233;28;20050;-47
2021/07/23 07:24:34;;;;;;;6.25;3.10;;;17.10;99.90;;;;;;20760130;28;20053;-47
2021/07/23 07:34:36;;;;;;;3.92;1.83;;;17.30;99.90;;;;;;20748274;28;20052;-47
2021/07/23 07:44:37;;;;;;;2.75;1.38;;;17.50;99.90;;;;;;20746584;28;20054;-47
2021/07/23 07:54:39;;;;;;;4.35;1.75;;;17.40;99.90;;;;;;20765944;28;20083;-48
2021/07/23 08:04:40;;;;;;;3.72;1.75;;;17.40;99.90;;;;;;20741487;28;20139;-48
2021/07/23 08:14:41;;;;;;;4.53;1.25;;;17.50;99.90;;;;;;20754754;28;20058;-47
2021/07/23 08:24:43;;;;;;;4.43;1.60;;;17.50;99.90;;;;;;20754247;28;20119;-48
2021/07/23 08:34:44;;;;;;;3.90;1.55;;;17.40;99.90;;;;;;20755648;28;20045;-48
2021/07/23 08:44:46;;;;;;;3.22;1.17;;;17.70;99.90;;;;;;20756708;28;20061;-48
2021/07/23 08:54:48;;;;;;;3.90;1.40;;;17.60;99.90;;;;;;20757544;28;20122;-47
2021/07/23 09:04:49;;;;;;;3.50;1.40;;;17.90;99.90;;;;;;20753540;28;20057;-48
2021/07/23 09:14:50;;;;;;;4.97;1.42;;;18.00;99.90;;;;;;20746622;28;20112;-48
2021/07/23 09:24:52;;;;;;;12.23;3.97;;;18.20;99.90;;;;;;20755970;28;20117;-47
2021/07/23 09:35:08;;;;;;;8.23;3.10;;;18.30;99.90;;;;;;20744915;28;20049;-48
2021/07/23 09:45:10;;;;;;;5.30;1.70;;;18.20;99.90;;;;;;20726740;28;20054;-47
2021/07/23 09:55:13;;;;;;;3.25;1.70;;;18.30;99.90;;;;;;20735435;28;20124;-48
2021/07/23 10:05:20;;;;;;;3.83;1.50;;;18.40;99.90;;;;;;20740697;28;20053;-49
2021/07/23 10:15:22;;;;;;;3.35;1.05;;;18.60;99.90;;;;;;20740413;28;20057;-48
2021/07/23 10:25:27;;;;;;;2.03;1.02;;;19.00;99.90;;;;;;20740849;28;20045;-48
2021/07/23 10:35:31;;;;;;;2.58;1.02;;;19.20;99.90;;;;;;20737578;28;20046;-48
2021/07/23 10:45:42;;;;;;;2.85;1.10;;;19.40;99.90;;;;;;20751508;28;20045;-48
2021/07/23 10:55:46;;;;;;;2.85;1.10;;;19.40;99.90;;;;;;20721198;28;20089;-50
2021/07/23 11:05:48;;;;;;;5.07;1.55;;;19.40;99.90;;;;;;20728277;28;22303;-49
2021/07/23 11:16:08;;;;;;;3.63;1.60;;;19.60;99.90;;;;;;20729347;28;20038;-49
2021/07/23 11:26:09;;;;;;;3.35;1.73;;;19.40;99.90;;;;;;20739801;28;20046;-48
2021/07/23 11:36:38;;;;;;;4.63;1.40;;;19.60;99.90;;;;;;20739409;28;20053;-48
2021/07/23 11:46:39;;;;;;;3.60;1.57;;;20.00;99.90;;;;;;20696358;28;20056;-49
2021/07/23 11:56:41;;;;;;;3.92;1.70;;;20.10;99.90;;;;;;20739125;28;20053;-50
2021/07/23 12:06:44;;;;;;;4.85;1.60;;;20.30;99.90;;;;;;20725966;28;20050;-48
2021/07/23 12:16:46;;;;;;;4.13;1.30;;;20.80;99.90;;;;;;20694252;28;20054;-50
2021/07/23 12:26:47;;;;;;;5.57;1.60;;;20.90;99.90;;;;;;20729894;28;20131;-49
2021/07/23 12:36:52;;;;;;;5.85;1.60;;;21.40;99.90;;;;;;20722324;28;20051;-49
2021/07/23 12:46:55;;;;;;;3.63;1.35;;;21.40;99.90;;;;;;20730468;28;20055;-49
2021/07/23 12:57:29;;;;;;;4.63;1.67;;;21.20;99.90;;;;;;20736993;28;20045;-48
2021/07/23 13:07:30;;;;;;;6.57;2.67;;;20.90;99.90;;;;;;20743889;28;20045;-48
2021/07/23 13:17:33;;;;;;;5.57;1.92;;;20.70;99.90;;;;;;20738882;28;20053;-49
2021/07/23 13:27:34;;;;;;;6.30;1.85;;;20.70;99.90;;;;;;20740337;28;20077;-49
2021/07/23 13:37:37;;;;;;;3.38;1.58;;;20.60;99.90;;;;;;20732909;28;20411;-49
2021/07/23 13:47:39;;;;;;;4.22;1.92;;;21.00;99.90;;;;;;20712526;28;20077;-49
2021/07/23 13:57:40;;;;;;;6.30;2.97;;;21.10;99.90;;;;;;20748808;28;20040;-48
2021/07/23 14:07:42;;;;;;;5.57;2.35;;;21.30;99.90;;;;;;20744619;28;20053;-48
2021/07/23 14:17:43;;;;;;;5.43;2.65;;;21.70;99.90;;;;;;20723291;28;20050;-49
2021/07/23 14:27:44;;;;;;;4.25;1.75;;;21.50;99.90;;;;;;20746693;28;20049;-50
2021/07/23 14:37:45;;;;;;;3.92;1.50;;;21.40;99.90;;;;;;20746692;28;20125;-49
2021/07/23 14:47:47;;;;;;;4.47;2.10;;;21.30;99.90;;;;;;20734984;28;20497;-49
2021/07/23 14:57:48;;;;;;;5.65;2.00;;;21.60;99.90;;;;;;20746951;28;20049;-48
2021/07/23 15:07:50;;;;;;;4.13;1.70;;;21.60;99.90;;;;;;20764582;28;20050;-48
2021/07/23 15:17:54;;;;;;;3.30;1.50;;;21.70;99.90;;;;;;20765058;28;20045;-49
2021/07/23 15:27:56;;;;;;;3.88;1.60;;;21.90;99.90;;;;;;20753430;28;20061;-49
2021/07/23 15:37:57;;;;;;;5.53;2.47;;;21.60;99.90;;;;;;20762624;28;20042;-50
2021/07/23 15:47:59;;;;;;;4.45;1.85;;;21.80;99.90;;;;;;20738776;28;20042;-49
2021/07/23 15:58:00;;;;;;;6.88;2.08;;;21.90;99.90;;;;;;20739561;28;20038;-49
2021/07/23 16:08:02;;;;;;;4.40;1.63;;;21.70;99.90;;;;;;20766391;28;20045;-49
2021/07/23 16:18:03;;;;;;;5.43;1.88;;;21.70;99.90;;;;;;20738970;28;20054;-49
2021/07/23 16:28:04;;;;;;;5.18;1.83;;;21.50;99.90;;;;;;20737165;28;20052;-49
2021/07/23 16:38:06;;;;;;;3.88;1.63;;;21.40;99.90;;;;;;20739222;28;20053;-50
2021/07/23 16:48:07;;;;;;;5.72;2.03;;;21.60;99.90;;;;;;20752052;28;20136;-49
2021/07/23 16:58:08;;;;;;;3.75;1.65;;;21.40;99.90;;;;;;20741177;28;20041;-49
2021/07/23 17:08:09;;;;;;;4.35;1.80;;;21.30;99.90;;;;;;20744893;28;20120;-48
2021/07/23 17:18:12;;;;;;;4.28;1.75;;;21.30;99.90;;;;;;20734560;28;20441;-49
2021/07/23 17:28:13;;;;;;;5.70;2.22;;;21.10;99.90;;;;;;20724687;28;20104;-49
2021/07/23 17:38:14;;;;;;;5.10;1.90;;;21.00;99.90;;;;;;20735035;28;20050;-49
2021/07/23 17:48:16;;;;;;;4.43;1.98;;;20.90;99.90;;;;;;20757761;28;20053;-48
2021/07/23 17:58:17;;;;;;;4.28;1.58;;;20.80;99.90;;;;;;20757765;28;20077;-49
2021/07/23 18:08:19;;;;;;;3.25;1.33;;;20.70;99.90;;;;;;20748842;28;21112;-49
2021/07/23 18:18:20;;;;;;;5.03;2.00;;;20.60;99.90;;;;;;20745125;28;20064;-49
2021/07/23 18:28:22;;;;;;;4.72;1.90;;;20.50;99.90;;;;;;20742166;28;20152;-50
2021/07/23 18:38:23;;;;;;;3.90;1.65;;;20.40;99.90;;;;;;20765392;28;20037;-49
2021/07/23 18:48:25;;;;;;;5.68;1.98;;;20.30;99.90;;;;;;20777482;28;20053;-49
2021/07/23 18:58:26;;;;;;;4.60;1.67;;;20.20;99.90;;;;;;20764478;28;20048;-49
2021/07/23 19:08:27;;;;;;;4.90;1.85;;;20.00;99.90;;;;;;20773380;28;20041;-49
2021/07/23 19:18:28;;;;;;;4.40;1.95;;;19.90;99.90;;;;;;20771782;28;20112;-50
2021/07/23 19:28:29;;;;;;;4.00;1.70;;;19.70;99.90;;;;;;20761632;28;20045;-49
2021/07/23 19:38:31;;;;;;;4.25;1.77;;;19.50;99.90;;;;;;20771790;28;20045;-49
2021/07/23 19:48:35;;;;;;;5.25;2.10;;;19.40;99.90;;;;;;20760591;28;20172;-48
2021/07/23 19:58:36;;;;;;;6.10;1.60;;;19.20;99.90;;;;;;20773748;28;20037;-48
2021/07/23 20:08:38;;;;;;;4.00;1.40;;;19.10;99.90;;;;;;20748413;28;20058;-49
2021/07/23 20:18:39;;;;;;;2.80;1.20;;;18.90;99.90;;;;;;20742177;28;20132;-49
2021/07/23 20:28:40;;;;;;;5.10;1.90;;;18.70;99.90;;;;;;20778283;28;20144;-48
2021/07/23 20:38:42;;;;;;;3.97;1.40;;;18.60;99.90;;;;;;20753731;28;20053;-48
2021/07/23 20:48:43;;;;;;;6.05;2.17;;;18.30;99.90;;;;;;20766166;28;20049;-47
2021/07/23 20:58:44;;;;;;;6.30;2.05;;;18.20;99.90;;;;;;20780982;28;20094;-48
2021/07/23 21:08:45;;;;;;;6.55;1.92;;;18.10;99.90;;;;;;20778349;28;20046;-48
2021/07/23 21:18:47;;;;;;;4.75;2.38;;;18.10;99.90;;;;;;20771017;28;20056;-48
2021/07/23 21:28:49;;;;;;;3.85;1.67;;;17.90;99.90;;;;;;20791984;28;20041;-48
2021/07/23 21:38:50;;;;;;;8.70;3.10;;;17.80;99.90;;;;;;20767085;28;20038;-47
2021/07/23 21:48:51;;;;;;;7.38;2.53;;;17.70;99.90;;;;;;20765371;28;20382;-47
2021/07/23 21:58:52;;;;;;;7.78;2.42;;;17.60;99.90;;;;;;20755457;28;20045;-47
2021/07/23 22:08:53;;;;;;;6.40;2.00;;;17.40;99.90;;;;;;20745846;28;20052;-49
2021/07/23 22:18:54;;;;;;;6.57;2.55;;;17.30;99.90;;;;;;20741355;28;20046;-48
2021/07/23 22:28:55;;;;;;;5.65;2.33;;;17.20;99.90;;;;;;20741018;28;20041;-55
2021/07/23 22:38:56;;;;;;;6.45;2.50;;;17.10;99.90;;;;;;20743503;28;20198;-47
2021/07/23 22:48:58;;;;;;;4.78;2.10;;;17.00;99.90;;;;;;20747298;28;20045;-48
2021/07/23 22:58:59;;;;;;;6.78;2.22;;;16.90;99.90;;;;;;20744428;28;20072;-48
2021/07/23 23:09:00;;;;;;;6.53;2.58;;;16.80;99.90;;;;;;20749069;28;20207;-48
2021/07/23 23:19:01;;;;;;;7.93;2.58;;;16.70;99.90;;;;;;20764459;28;20053;-48
2021/07/23 23:29:03;;;;;;;7.07;2.30;;;16.60;99.90;;;;;;20767686;28;20456;-47
2021/07/23 23:39:06;;;;;;;7.18;2.80;;;16.50;99.90;;;;;;20758394;28;20572;-48
2021/07/23 23:49:07;;;;;;;6.85;2.53;;;16.50;99.90;;;;;;20758270;28;20045;-48
2021/07/23 23:59:08;;;;;;;7.30;3.42;;;16.50;99.90;;;;;;20760086;28;20038;-48
